TimeEDT,TemperatureF,Dew PointF,Humidity,Sea Level PressureIn,VisibilityMPH,Wind Direction,Wind SpeedMPH,Gust SpeedMPH,PrecipitationIn,Events,Conditions,WindDirDegrees,DateUTC
12:15 AM,66.2,60.8,83,30.02,10.0,South,9.2,-,N/A,,Clear,190,2012-10-15 04:15:00
12:35 AM,66.2,60.8,83,30.01,10.0,South,9.2,-,N/A,,Clear,190,2012-10-15 04:35:00
12:55 AM,66.2,60.8,83,30.01,10.0,SSW,6.9,-,N/A,,Clear,200,2012-10-15 04:55:00
1:15 AM,66.2,60.8,83,30.00,10.0,South,6.9,-,N/A,,Clear,190,2012-10-15 05:15:00
1:35 AM,66.2,60.8,83,30.00,10.0,South,5.8,-,N/A,,Clear,190,2012-10-15 05:35:00
1:55 AM,66.2,60.8,83,30.00,10.0,SSW,4.6,-,N/A,,Clear,210,2012-10-15 05:55:00
2:15 AM,66.2,59.0,78,29.99,10.0,SSW,4.6,-,N/A,,Clear,210,2012-10-15 06:15:00
2:35 AM,64.4,59.0,83,29.99,10.0,South,6.9,-,N/A,,Clear,190,2012-10-15 06:35:00
2:55 AM,64.4,59.0,83,29.98,10.0,South,4.6,-,N/A,,Scattered Clouds,190,2012-10-15 06:55:00
3:15 AM,64.4,59.0,83,29.97,10.0,South,6.9,-,N/A,,Mostly Cloudy,180,2012-10-15 07:15:00
3:35 AM,64.4,59.0,83,29.95,10.0,South,8.1,-,N/A,,Mostly Cloudy,190,2012-10-15 07:35:00
3:55 AM,64.4,59.0,83,29.94,10.0,South,8.1,-,N/A,,Clear,190,2012-10-15 07:55:00
4:15 AM,64.4,59.0,83,29.94,10.0,SSW,3.5,-,N/A,,Clear,200,2012-10-15 08:15:00
4:35 AM,64.4,59.0,83,29.94,10.0,SW,3.5,-,N/A,,Clear,220,2012-10-15 08:35:00
4:55 AM,64.4,59.0,83,29.93,10.0,WSW,4.6,-,N/A,,Clear,240,2012-10-15 08:55:00
5:15 AM,64.4,59.0,83,29.93,10.0,SSW,5.8,-,N/A,,Clear,200,2012-10-15 09:15:00
5:55 AM,64.4,59.0,83,29.92,10.0,South,5.8,-,N/A,,Clear,180,2012-10-15 09:55:00
6:15 AM,64.4,59.0,83,29.92,10.0,SSW,3.5,-,N/A,,Mostly Cloudy,200,2012-10-15 10:15:00
6:55 AM,62.6,59.0,88,29.92,10.0,South,5.8,-,N/A,,Scattered Clouds,190,2012-10-15 10:55:00
7:15 AM,62.6,59.0,88,29.91,10.0,South,4.6,-,N/A,,Scattered Clouds,180,2012-10-15 11:15:00
7:35 AM,62.6,59.0,88,29.91,10.0,South,4.6,-,N/A,,Clear,180,2012-10-15 11:35:00
7:55 AM,62.6,59.0,88,29.90,10.0,South,3.5,-,N/A,,Clear,190,2012-10-15 11:55:00
8:15 AM,64.4,60.8,88,29.90,10.0,Calm,Calm,-,N/A,,Scattered Clouds,0,2012-10-15 12:15:00
8:35 AM,66.2,60.8,83,29.90,10.0,SSW,4.6,-,N/A,,Clear,200,2012-10-15 12:35:00
8:55 AM,66.2,60.8,83,29.91,10.0,Calm,Calm,-,N/A,,Clear,0,2012-10-15 12:55:00
9:15 AM,68.0,60.8,78,29.90,10.0,SW,6.9,-,N/A,,Clear,220,2012-10-15 13:15:00
9:35 AM,69.8,60.8,73,29.90,10.0,SW,6.9,-,N/A,,Scattered Clouds,220,2012-10-15 13:35:00
9:55 AM,69.8,60.8,73,29.89,10.0,WSW,9.2,-,N/A,,Scattered Clouds,240,2012-10-15 13:55:00
10:15 AM,71.6,60.8,69,29.89,10.0,WSW,5.8,17.3,N/A,,Clear,240,2012-10-15 14:15:00
10:35 AM,73.4,60.8,65,29.88,10.0,WSW,3.5,-,N/A,,Clear,240,2012-10-15 14:35:00
10:55 AM,73.4,60.8,65,29.88,10.0,WSW,11.5,17.3,N/A,,Mostly Cloudy,240,2012-10-15 14:55:00
11:15 AM,73.4,62.6,69,29.87,10.0,WSW,9.2,17.3,N/A,,Mostly Cloudy,240,2012-10-15 15:15:00
11:35 AM,75.2,62.6,65,29.86,10.0,WSW,8.1,18.4,N/A,,Scattered Clouds,240,2012-10-15 15:35:00
11:55 AM,75.2,60.8,61,29.86,10.0,SW,10.4,19.6,N/A,,Mostly Cloudy,230,2012-10-15 15:55:00
12:15 PM,73.4,60.8,65,29.85,10.0,SW,8.1,-,N/A,,Mostly Cloudy,230,2012-10-15 16:15:00
12:35 PM,73.4,60.8,65,29.86,10.0,West,13.8,23.0,N/A,,Overcast,260,2012-10-15 16:35:00
12:55 PM,69.8,62.6,78,29.85,5.0,WSW,9.2,20.7,N/A,,Overcast,250,2012-10-15 16:55:00
1:15 PM,69.8,60.8,73,29.85,7.0,WSW,11.5,18.4,N/A,,Overcast,240,2012-10-15 17:15:00
1:35 PM,68.0,62.6,83,29.84,10.0,West,15.0,21.9,N/A,,Mostly Cloudy,270,2012-10-15 17:35:00
1:55 PM,66.2,60.8,83,29.81,10.0,SW,4.6,9.2,0.01,,Mostly Cloudy,230,2012-10-15 17:55:00
2:15 PM,66.2,60.8,83,29.79,10.0,SW,3.5,-,N/A,,Mostly Cloudy,220,2012-10-15 18:15:00
2:35 PM,66.2,60.8,83,29.76,10.0,SSW,4.6,-,N/A,,Scattered Clouds,200,2012-10-15 18:35:00
2:55 PM,68.0,62.6,83,29.76,10.0,SSW,5.8,-,N/A,,Scattered Clouds,200,2012-10-15 18:55:00
3:15 PM,68.0,62.6,83,29.75,10.0,South,3.5,-,N/A,,Clear,190,2012-10-15 19:15:00
3:35 PM,68.0,62.6,83,29.75,10.0,SSW,4.6,-,N/A,,Clear,200,2012-10-15 19:35:00
3:55 PM,68.0,62.6,83,29.75,10.0,Calm,Calm,-,N/A,,Clear,0,2012-10-15 19:55:00
4:15 PM,69.8,62.6,78,29.74,10.0,Calm,Calm,-,N/A,,Scattered Clouds,0,2012-10-15 20:15:00
4:35 PM,69.8,62.6,78,29.74,10.0,SW,4.6,-,N/A,,Scattered Clouds,220,2012-10-15 20:35:00
4:55 PM,69.8,62.6,78,29.73,10.0,Calm,Calm,-,N/A,,Scattered Clouds,0,2012-10-15 20:55:00
5:15 PM,69.8,62.6,78,29.72,10.0,South,3.5,-,N/A,,Mostly Cloudy,170,2012-10-15 21:15:00
5:35 PM,66.2,62.6,88,29.71,10.0,SSE,4.6,-,N/A,,Overcast,150,2012-10-15 21:35:00
5:55 PM,66.2,62.6,88,29.71,10.0,Calm,Calm,-,N/A,,Overcast,0,2012-10-15 21:55:00
6:15 PM,66.2,62.6,88,29.72,1.5,West,5.8,-,0.15,,Overcast,260,2012-10-15 22:15:00
6:35 PM,64.4,62.6,94,29.75,5.0,SW,6.9,-,0.19,,Overcast,230,2012-10-15 22:35:00
6:55 PM,64.4,60.8,88,29.72,10.0,South,3.5,-,0.20,,Overcast,180,2012-10-15 22:55:00
7:15 PM,64.4,60.8,88,29.71,7.0,WNW,3.5,-,0.01,,Overcast,290,2012-10-15 23:15:00
7:35 PM,64.4,62.6,94,29.72,10.0,South,3.5,-,0.01,,Scattered Clouds,170,2012-10-15 23:35:00
7:55 PM,62.6,60.8,94,29.72,10.0,Calm,Calm,-,0.01,,Clear,0,2012-10-15 23:55:00
8:15 PM,62.6,60.8,94,29.72,10.0,South,4.6,-,N/A,,Clear,190,2012-10-16 00:15:00
8:35 PM,64.4,62.6,94,29.72,10.0,SSW,4.6,-,N/A,,Clear,210,2012-10-16 00:35:00
8:55 PM,62.6,60.8,94,29.72,10.0,SSW,3.5,-,N/A,,Clear,200,2012-10-16 00:55:00
9:15 PM,62.6,60.8,94,29.73,10.0,Calm,Calm,-,N/A,,Clear,0,2012-10-16 01:15:00
9:35 PM,62.6,60.8,94,29.74,7.0,Calm,Calm,-,N/A,,Mostly Cloudy,0,2012-10-16 01:35:00
9:55 PM,62.6,60.8,94,29.75,5.0,NNW,3.5,-,N/A,,Mostly Cloudy,330,2012-10-16 01:55:00
10:15 PM,62.6,60.8,94,29.78,10.0,North,10.4,20.7,N/A,,Overcast,360,2012-10-16 02:15:00
10:35 PM,60.8,57.2,88,29.79,10.0,North,5.8,-,N/A,,Overcast,10,2012-10-16 02:35:00
10:55 PM,60.8,57.2,88,29.79,10.0,North,4.6,-,N/A,,Mostly Cloudy,10,2012-10-16 02:55:00
11:15 PM,59.0,57.2,94,29.80,10.0,North,6.9,-,N/A,,Scattered Clouds,360,2012-10-16 03:15:00
11:35 PM,59.0,57.2,94,29.81,10.0,North,4.6,-,N/A,,Clear,10,2012-10-16 03:35:00
11:55 PM,57.2,55.4,94,29.81,7.0,North,4.6,-,N/A,,Clear,350,2012-10-16 03:55:00